createdAt,value
2022-08-03T00:00:26.323Z,4.93
2022-08-03T00:02:53.310Z,4.33
2022-08-03T00:05:20.193Z,4.78
2022-08-03T00:07:46.796Z,4.60
2022-08-03T00:10:16.101Z,4.55
2022-08-03T00:12:42.524Z,4.80
2022-08-03T00:15:11.164Z,4.97
2022-08-03T00:17:53.510Z,4.47
2022-08-03T00:20:21.602Z,4.70
2022-08-03T00:22:48.599Z,4.70
2022-08-03T00:25:15.256Z,4.50
2022-08-03T00:27:41.739Z,4.93
2022-08-03T00:30:08.922Z,4.60
2022-08-03T00:32:35.363Z,4.90
2022-08-03T00:35:08.109Z,4.55
2022-08-03T00:37:40.887Z,4.63
2022-08-03T00:40:13.499Z,4.80
2022-08-03T00:43:07.118Z,4.82
2022-08-03T00:45:38.406Z,4.85
2022-08-03T00:48:06.660Z,4.55
2022-08-03T00:50:54.214Z,4.97
2022-08-03T00:53:20.967Z,5.40
2022-08-03T00:55:47.518Z,4.75
2022-08-03T00:58:14.096Z,4.70
2022-08-03T01:00:40.968Z,5.22
2022-08-03T01:03:10.119Z,5.50
2022-08-03T01:06:00.784Z,6.30
2022-08-03T01:08:40.418Z,5.05
2022-08-03T01:11:15.692Z,5.30
2022-08-03T01:14:04.249Z,5.10
2022-08-03T01:16:58.045Z,4.95
2022-08-03T01:19:24.426Z,5.60
2022-08-03T01:22:09.693Z,5.28
2022-08-03T01:25:06.084Z,4.90
2022-08-03T01:28:03.515Z,5.38
2022-08-03T01:30:32.285Z,4.70
2022-08-03T01:33:03.690Z,4.80
2022-08-03T01:35:42.203Z,4.57
2022-08-03T01:38:24.646Z,4.82
2022-08-03T01:40:54.674Z,5.00
2022-08-03T01:44:26.968Z,5.20
2022-08-03T01:46:15.849Z,5.20
2022-08-03T01:48:44.290Z,4.80
2022-08-03T01:51:11.959Z,5.30
2022-08-03T01:53:44.127Z,5.05
2022-08-03T01:56:12.404Z,4.90
2022-08-03T01:58:41.046Z,5.00
2022-08-03T02:01:10.023Z,4.78
2022-08-03T02:03:59.905Z,4.95
2022-08-03T02:07:02.104Z,5.15
2022-08-03T02:09:19.940Z,4.93
2022-08-03T02:11:47.493Z,5.20
2022-08-03T02:14:16.192Z,5.22
2022-08-03T02:16:45.226Z,4.90
2022-08-03T02:19:13.440Z,4.85
2022-08-03T02:21:56.829Z,5.72
2022-08-03T02:24:28.051Z,4.60
2022-08-03T02:26:56.550Z,5.07
2022-08-03T02:29:40.150Z,4.90
2022-08-03T02:32:14.107Z,5.03
2022-08-03T02:34:43.439Z,5.22
2022-08-03T02:37:11.552Z,4.77
2022-08-03T02:39:41.762Z,5.18
2022-08-03T02:42:12.632Z,5.03
2022-08-03T02:44:41.504Z,4.70
2022-08-03T02:47:11.155Z,5.00
2022-08-03T02:49:50.678Z,4.97
2022-08-03T02:52:24.003Z,5.10
2022-08-03T02:54:53.843Z,5.20
2022-08-03T02:57:23.254Z,4.75
2022-08-03T02:59:50.815Z,4.65
2022-08-03T03:02:19.687Z,5.13
2022-08-03T03:05:50.923Z,5.00
2022-08-03T03:07:51.400Z,5.20
2022-08-03T03:10:23.698Z,5.18
2022-08-03T03:12:56.398Z,5.03
2022-08-03T03:15:25.093Z,5.40
2022-08-03T03:17:53.479Z,5.00
2022-08-03T03:20:29.677Z,5.40
2022-08-03T03:22:59.238Z,5.47
2022-08-03T03:25:26.030Z,5.80
2022-08-03T03:27:53.198Z,5.13
2022-08-03T03:30:19.689Z,5.50
2022-08-03T03:32:46.331Z,5.32
2022-08-03T03:35:14.461Z,5.13
2022-08-03T03:37:40.999Z,4.97
2022-08-03T03:40:09.065Z,5.80
2022-08-03T03:42:35.867Z,5.50
2022-08-03T03:45:07.275Z,5.18
2022-08-03T03:47:37.680Z,5.60
2022-08-03T03:50:06.487Z,5.18
2022-08-03T03:52:33.930Z,5.10
2022-08-03T03:55:01.543Z,5.03
2022-08-03T03:57:29.173Z,5.60
2022-08-03T03:59:55.765Z,5.05
2022-08-03T04:02:22.324Z,5.07
2022-08-03T04:05:07.584Z,4.97
2022-08-03T04:08:10.473Z,4.85
2022-08-03T04:10:59.945Z,4.93
2022-08-03T04:13:33.754Z,5.40
2022-08-03T04:16:01.429Z,4.90
2022-08-03T04:18:31.406Z,4.97
2022-08-03T04:21:01.784Z,4.50
2022-08-03T04:23:30.898Z,5.45
2022-08-03T04:25:59.339Z,5.25
2022-08-03T04:28:30.362Z,5.07
2022-08-03T04:31:01.270Z,5.00
2022-08-03T04:33:30.888Z,5.10
2022-08-03T04:36:02.838Z,5.05
2022-08-03T04:38:33.088Z,5.40
2022-08-03T04:41:01.155Z,5.32
2022-08-03T04:43:29.106Z,4.83
2022-08-03T04:45:56.890Z,5.10
2022-08-03T04:48:24.005Z,5.45
2022-08-03T04:50:50.856Z,5.30
2022-08-03T04:53:18.185Z,5.35
2022-08-03T04:55:46.408Z,4.93
2022-08-03T04:58:12.939Z,5.22
2022-08-03T05:00:39.452Z,4.82
2022-08-03T05:03:19.402Z,5.10
2022-08-03T05:05:51.069Z,4.78
2022-08-03T05:08:20.649Z,4.80
2022-08-03T05:10:55.280Z,4.78
2022-08-03T05:13:23.599Z,4.90
2022-08-03T05:15:50.645Z,18.67
2022-08-03T05:18:17.317Z,20.55
2022-08-03T05:20:45.968Z,8.40
2022-08-03T05:23:12.586Z,5.05
2022-08-03T05:25:39.341Z,5.28
2022-08-03T05:28:06.018Z,4.88
2022-08-03T05:30:33.948Z,4.97
2022-08-03T05:33:02.497Z,4.20
2022-08-03T05:35:57.674Z,4.43
2022-08-03T05:38:24.236Z,3.78
2022-08-03T05:40:57.184Z,3.50
2022-08-03T05:43:24.693Z,3.10
2022-08-03T05:46:11.636Z,3.40
2022-08-03T05:48:38.354Z,3.17
2022-08-03T05:51:11.049Z,3.40
2022-08-03T05:53:38.424Z,2.85
2022-08-03T05:56:14.639Z,2.65
2022-08-03T05:58:48.471Z,2.40
2022-08-03T06:01:16.186Z,2.72
2022-08-03T06:03:42.827Z,2.70
2022-08-03T06:06:09.662Z,2.72
2022-08-03T06:08:36.152Z,2.50
2022-08-03T06:11:03.202Z,2.30
2022-08-03T06:13:29.830Z,2.33
2022-08-03T06:15:56.423Z,2.47
2022-08-03T06:18:24.566Z,2.10
2022-08-03T06:20:52.275Z,2.30
2022-08-03T06:23:19.347Z,2.30
2022-08-03T06:25:47.432Z,2.20
2022-08-03T06:28:42.605Z,2.30
2022-08-03T06:31:01.914Z,3.72
2022-08-03T06:33:48.476Z,2.40
2022-08-03T06:36:15.262Z,4.17
2022-08-03T06:38:42.006Z,2.78
2022-08-03T06:41:08.646Z,2.03
2022-08-03T06:43:37.970Z,4.82
2022-08-03T06:46:24.068Z,9.15
2022-08-03T06:48:50.667Z,8.37
2022-08-03T06:51:17.296Z,2.15
2022-08-03T06:53:43.763Z,2.13
2022-08-03T06:56:11.062Z,2.22
2022-08-03T06:58:37.543Z,2.17
2022-08-03T07:01:04.045Z,2.20
2022-08-03T07:03:30.597Z,2.00
2022-08-03T07:05:57.137Z,2.55
2022-08-03T07:08:33.561Z,2.40
2022-08-03T07:11:01.197Z,2.70
2022-08-03T07:13:27.673Z,5.70
2022-08-03T07:15:56.149Z,3.15
2022-08-03T07:18:27.573Z,2.22
2022-08-03T07:20:57.651Z,2.00
2022-08-03T07:23:24.167Z,6.32
2022-08-03T07:25:50.845Z,2.20
2022-08-03T07:28:17.547Z,1.90
2022-08-03T07:30:44.058Z,2.10
2022-08-03T07:33:10.616Z,2.00
2022-08-03T07:35:37.290Z,1.80
2022-08-03T07:38:03.734Z,1.70
2022-08-03T07:40:30.734Z,1.80
2022-08-03T07:42:58.734Z,1.90
2022-08-03T07:45:26.639Z,1.70
2022-08-03T07:47:54.214Z,2.33
2022-08-03T07:50:22.644Z,2.73
2022-08-03T07:52:50.490Z,1.60
2022-08-03T07:55:22.041Z,1.90
2022-08-03T07:57:59.942Z,1.80
2022-08-03T08:00:26.587Z,2.33
2022-08-03T08:02:53.054Z,1.57
2022-08-03T08:05:19.638Z,1.65
2022-08-03T08:07:51.009Z,1.55
2022-08-03T08:10:18.087Z,1.70
2022-08-03T08:12:44.584Z,1.70
2022-08-03T08:15:11.137Z,1.60
2022-08-03T08:17:53.768Z,1.60
2022-08-03T08:20:28.252Z,1.70
2022-08-03T08:23:01.330Z,1.88
2022-08-03T08:25:29.502Z,1.65
2022-08-03T08:28:30.434Z,2.10
2022-08-03T08:30:42.566Z,1.83
2022-08-03T08:33:22.357Z,2.10
2022-08-03T08:35:50.374Z,1.90
2022-08-03T08:38:16.863Z,2.05
2022-08-03T08:40:43.456Z,1.90
2022-08-03T08:43:10.024Z,2.00
2022-08-03T08:45:37.555Z,1.80
2022-08-03T08:48:08.359Z,1.90
2022-08-03T08:50:37.409Z,2.10
2022-08-03T08:53:07.018Z,2.10
2022-08-03T08:55:59.470Z,1.98
2022-08-03T08:58:24.460Z,1.95
2022-08-03T09:00:51.090Z,1.70
2022-08-03T09:03:29.308Z,2.10
2022-08-03T09:05:57.975Z,1.80
2022-08-03T09:08:24.635Z,1.83
2022-08-03T09:10:51.147Z,1.98
2022-08-03T09:13:17.631Z,1.90
2022-08-03T09:15:59.112Z,2.05
2022-08-03T09:18:32.761Z,1.90
2022-08-03T09:21:35.273Z,1.90
2022-08-03T09:24:06.333Z,2.05
2022-08-03T09:26:37.171Z,2.63
2022-08-03T09:29:14.525Z,1.98
2022-08-03T09:31:45.000Z,2.20
2022-08-03T09:34:14.363Z,2.03
2022-08-03T09:36:46.518Z,1.90
2022-08-03T09:39:41.728Z,2.13
2022-08-03T09:42:23.873Z,2.10
2022-08-03T09:44:51.912Z,2.00
2022-08-03T09:47:29.961Z,2.00
2022-08-03T09:50:01.899Z,2.00
2022-08-03T09:52:52.569Z,2.15
2022-08-03T09:56:34.857Z,2.00
2022-08-03T09:58:11.563Z,2.03
2022-08-03T10:00:54.015Z,2.13
2022-08-03T10:03:21.806Z,2.20
2022-08-03T10:05:48.598Z,2.20
2022-08-03T10:08:16.849Z,1.90
2022-08-03T10:10:44.515Z,2.30
2022-08-03T10:13:15.891Z,2.28
2022-08-03T10:16:22.447Z,2.10
2022-08-03T10:18:29.100Z,2.33
2022-08-03T10:21:03.286Z,2.20
2022-08-03T10:23:34.464Z,2.03
2022-08-03T10:26:03.712Z,2.22
2022-08-03T10:28:45.036Z,2.10
2022-08-03T10:31:13.863Z,2.00
2022-08-03T10:33:51.490Z,2.30
2022-08-03T10:36:23.819Z,2.13
2022-08-03T10:38:55.167Z,2.20
2022-08-03T10:41:25.967Z,2.30
2022-08-03T10:44:11.214Z,2.20
2022-08-03T10:46:44.764Z,1.90
2022-08-03T10:49:17.217Z,2.00
2022-08-03T10:52:01.554Z,2.10
2022-08-03T10:55:01.019Z,2.20
2022-08-03T10:57:49.917Z,2.00
2022-08-03T11:00:21.469Z,2.00
2022-08-03T11:03:26.451Z,2.10
2022-08-03T11:05:55.929Z,1.95
2022-08-03T11:08:31.111Z,2.15
2022-08-03T11:11:21.797Z,1.90
2022-08-03T11:14:03.298Z,2.00
2022-08-03T11:16:34.998Z,2.23
2022-08-03T11:19:04.358Z,2.10
2022-08-03T11:21:49.075Z,1.90
2022-08-03T11:24:51.230Z,2.13
2022-08-03T11:27:19.188Z,2.17
2022-08-03T11:29:55.047Z,2.10
2022-08-03T11:32:48.452Z,2.20
2022-08-03T11:35:35.349Z,2.20
2022-08-03T11:38:10.133Z,2.00
2022-08-03T11:40:50.704Z,1.77
2022-08-03T11:43:30.698Z,1.90
2022-08-03T11:46:29.671Z,2.10
2022-08-03T11:49:11.075Z,2.30
2022-08-03T11:51:39.990Z,1.90
2022-08-03T11:54:06.973Z,2.20
2022-08-03T11:56:47.792Z,2.20
2022-08-03T11:59:20.139Z,2.00
2022-08-03T12:01:47.604Z,2.05
2022-08-03T12:04:16.240Z,2.00
2022-08-03T12:06:59.040Z,2.15
2022-08-03T12:09:25.487Z,1.90
2022-08-03T12:12:00.264Z,2.78
2022-08-03T12:14:49.050Z,2.75
2022-08-03T12:17:15.908Z,2.40
2022-08-03T12:19:43.875Z,2.63
2022-08-03T12:22:10.406Z,8.37
2022-08-03T12:24:46.891Z,3.00
2022-08-03T12:27:26.407Z,2.50
2022-08-03T12:29:58.935Z,2.33
2022-08-03T12:32:26.826Z,2.45
2022-08-03T12:34:53.281Z,2.53
2022-08-03T12:37:22.960Z,2.38
2022-08-03T12:40:05.353Z,3.10
2022-08-03T12:42:38.077Z,2.70
2022-08-03T12:45:28.705Z,2.80
2022-08-03T12:48:00.559Z,2.30
2022-08-03T12:50:32.485Z,2.20
2022-08-03T12:53:00.668Z,2.20
2022-08-03T12:55:56.377Z,2.17
2022-08-03T12:58:35.299Z,2.05
2022-08-03T13:01:05.186Z,2.40
2022-08-03T13:03:54.799Z,2.05
2022-08-03T13:06:25.361Z,2.20
2022-08-03T13:09:12.110Z,2.10
2022-08-03T13:11:55.589Z,2.10
2022-08-03T13:14:25.392Z,2.20
2022-08-03T13:16:51.932Z,1.95
2022-08-03T13:19:18.488Z,2.30
2022-08-03T13:21:53.477Z,2.05
2022-08-03T13:24:30.569Z,2.10
2022-08-03T13:26:58.447Z,1.83
2022-08-03T13:29:24.842Z,1.95
2022-08-03T13:31:51.678Z,2.00
2022-08-03T13:34:22.940Z,1.90
2022-08-03T13:39:57.154Z,1.50
2022-08-03T13:42:25.312Z,1.95
2022-08-03T13:44:51.844Z,1.95
2022-08-03T13:47:19.292Z,1.85
2022-08-03T13:49:54.217Z,1.63
2022-08-03T13:52:27.535Z,1.60
2022-08-03T13:54:54.000Z,1.70
2022-08-03T13:58:04.319Z,2.00
2022-08-03T14:00:07.878Z,1.40
2022-08-03T14:02:34.412Z,1.70
2022-08-03T14:05:00.905Z,1.67
2022-08-03T14:07:27.329Z,1.70
2022-08-03T14:09:53.738Z,1.80
2022-08-03T14:12:20.179Z,1.40
2022-08-03T14:14:46.637Z,1.60
2022-08-03T14:17:13.079Z,1.70
2022-08-03T14:19:53.561Z,1.40
2022-08-03T14:22:21.203Z,1.73
2022-08-03T14:24:49.166Z,1.50
2022-08-03T14:27:16.501Z,1.80
2022-08-03T14:29:43.117Z,3.60
2022-08-03T14:32:13.290Z,2.35
2022-08-03T14:34:40.551Z,1.77
2022-08-03T14:37:07.296Z,1.40
2022-08-03T14:42:20.511Z,1.50
2022-08-03T14:44:48.025Z,1.63
2022-08-03T14:47:14.851Z,1.70
2022-08-03T14:50:37.641Z,1.40
2022-08-03T14:52:28.402Z,1.50
2022-08-03T14:54:54.818Z,1.30
2022-08-03T14:57:21.619Z,1.50
2022-08-03T14:59:55.666Z,1.50
2022-08-03T15:02:24.529Z,1.50
2022-08-03T15:04:51.484Z,1.40
2022-08-03T15:07:18.506Z,1.30
2022-08-03T15:09:45.305Z,1.40
2022-08-03T15:12:12.232Z,1.40
2022-08-03T15:14:38.900Z,1.40
2022-08-03T15:17:06.228Z,1.45
2022-08-03T15:20:00.930Z,1.40
2022-08-03T15:22:20.471Z,1.23
2022-08-03T15:24:47.560Z,1.42
2022-08-03T15:27:14.063Z,1.40
2022-08-03T15:30:07.716Z,1.20
2022-08-03T15:32:27.146Z,9.07
2022-08-03T15:34:55.284Z,1.52
2022-08-03T15:37:22.145Z,1.35
2022-08-03T15:39:59.990Z,1.30
2022-08-03T15:42:32.649Z,1.35
2022-08-03T15:44:59.587Z,1.20
2022-08-03T15:47:26.698Z,1.30
2022-08-03T15:49:53.272Z,1.30
2022-08-03T15:52:19.855Z,1.30
2022-08-03T15:54:46.320Z,1.40
2022-08-03T15:57:12.865Z,1.53
2022-08-03T15:59:39.335Z,1.38
2022-08-03T16:02:05.854Z,1.42
2022-08-03T16:04:32.270Z,1.40
2022-08-03T16:06:58.804Z,1.42
2022-08-03T16:09:43.100Z,1.40
2022-08-03T16:12:11.880Z,1.15
2022-08-03T16:14:51.896Z,1.40
2022-08-03T16:17:19.517Z,1.30
2022-08-03T16:19:46.229Z,1.40
2022-08-03T16:22:14.319Z,1.40
2022-08-03T16:24:41.257Z,1.40
2022-08-03T16:27:36.720Z,1.55
2022-08-03T16:29:54.741Z,1.30
2022-08-03T16:32:21.222Z,1.73
2022-08-03T16:34:48.195Z,1.50
2022-08-03T16:37:37.770Z,1.50
2022-08-03T16:40:02.069Z,1.40
2022-08-03T16:42:28.594Z,1.40
2022-08-03T16:44:55.070Z,1.40
2022-08-03T16:47:22.772Z,1.40
2022-08-03T16:49:54.657Z,1.67
2022-08-03T16:52:23.082Z,1.60
2022-08-03T16:54:53.243Z,1.40
2022-08-03T16:57:56.732Z,1.40
2022-08-03T17:00:12.550Z,1.30
2022-08-03T17:03:00.705Z,1.40
2022-08-03T17:05:27.870Z,1.20
2022-08-03T17:08:10.577Z,1.50
2022-08-03T17:10:41.666Z,1.40
2022-08-03T17:13:11.111Z,1.50
2022-08-03T17:15:57.727Z,1.30
2022-08-03T17:18:26.711Z,1.38
2022-08-03T17:20:54.828Z,1.40
2022-08-03T17:23:45.611Z,1.55
2022-08-03T17:26:21.237Z,1.40
2022-08-03T17:28:57.301Z,1.20
2022-08-03T17:31:31.391Z,1.50
2022-08-03T17:34:00.886Z,1.50
2022-08-03T17:36:47.590Z,1.52
2022-08-03T17:39:16.683Z,1.50
2022-08-03T17:41:49.094Z,1.25
2022-08-03T17:44:33.050Z,1.45
2022-08-03T17:47:04.402Z,1.40
2022-08-03T17:49:33.382Z,1.60
2022-08-03T17:52:34.836Z,1.53
2022-08-03T17:55:56.043Z,1.63
2022-08-03T17:58:08.554Z,1.50
2022-08-03T18:01:01.297Z,1.50
2022-08-03T18:03:58.009Z,1.50
2022-08-03T18:06:28.535Z,1.53
2022-08-03T18:09:00.090Z,1.35
2022-08-03T18:11:35.488Z,1.52
2022-08-03T18:14:16.414Z,1.60
2022-08-03T18:16:57.573Z,1.80
2022-08-03T18:20:03.705Z,1.70
2022-08-03T18:22:15.118Z,1.63
2022-08-03T18:24:42.308Z,1.40
2022-08-03T18:27:10.852Z,1.52
2022-08-03T18:29:38.070Z,1.77
2022-08-03T18:32:13.282Z,1.70
2022-08-03T18:34:53.819Z,1.65
2022-08-03T18:37:25.950Z,1.73
2022-08-03T18:42:52.820Z,1.92
2022-08-03T18:45:57.366Z,1.77
2022-08-03T18:48:27.189Z,1.63
2022-08-03T18:50:55.776Z,1.95
2022-08-03T18:54:03.049Z,1.80
2022-08-03T18:56:31.437Z,2.20
2022-08-03T18:59:03.794Z,2.17
2022-08-03T19:01:59.049Z,1.90
2022-08-03T19:04:32.995Z,2.00
2022-08-03T19:07:11.036Z,2.00
2022-08-03T19:09:37.852Z,2.10
2022-08-03T19:12:28.188Z,2.10
2022-08-03T19:15:05.428Z,2.50
2022-08-03T19:17:38.404Z,2.20
2022-08-03T19:20:06.503Z,2.28
2022-08-03T19:22:33.811Z,1.90
2022-08-03T19:25:04.514Z,2.00
2022-08-03T19:27:32.130Z,1.85
2022-08-03T19:30:03.077Z,7.55
2022-08-03T19:32:32.443Z,7.60
2022-08-03T19:35:01.417Z,2.50
2022-08-03T19:40:19.787Z,13.35
2022-08-03T19:42:50.280Z,2.60
2022-08-03T19:48:14.299Z,2.53
2022-08-03T19:50:44.537Z,2.23
2022-08-03T19:53:13.115Z,2.33
2022-08-03T19:55:48.156Z,2.42
2022-08-03T19:58:17.840Z,2.28
2022-08-03T20:00:55.567Z,2.47
2022-08-03T20:03:24.925Z,2.10
2022-08-03T20:05:54.199Z,1.88
2022-08-03T20:08:22.099Z,1.90
2022-08-03T20:10:49.415Z,2.00
2022-08-03T20:13:19.386Z,3.30
2022-08-03T20:15:46.265Z,2.80
2022-08-03T20:18:17.023Z,3.22
2022-08-03T20:20:47.983Z,2.80
2022-08-03T20:23:18.208Z,3.40
2022-08-03T20:25:58.643Z,2.40
2022-08-03T20:28:31.145Z,2.30
2022-08-03T20:30:58.064Z,2.10
2022-08-03T20:33:27.901Z,2.13
2022-08-03T20:36:12.386Z,2.30
2022-08-03T20:38:46.862Z,2.00
2022-08-03T20:41:14.640Z,2.13
2022-08-03T20:43:41.636Z,3.88
2022-08-03T20:46:29.076Z,2.30
2022-08-03T20:48:57.170Z,2.50
2022-08-03T20:51:52.277Z,2.80
2022-08-03T20:54:22.550Z,2.50
2022-08-03T20:56:56.570Z,2.50
2022-08-03T20:59:23.552Z,2.60
2022-08-03T21:01:50.730Z,3.28
2022-08-03T21:07:16.593Z,3.40
2022-08-03T21:09:57.046Z,2.30
2022-08-03T21:12:33.349Z,2.40
2022-08-03T21:12:58.868Z,1.60
2022-08-03T21:13:11.155Z,2.70
2022-08-03T21:13:12.501Z,4.18
2022-08-03T21:13:12.763Z,2.75
2022-08-03T21:15:03.661Z,2.08
2022-08-03T21:17:41.003Z,2.33
2022-08-03T21:20:12.684Z,2.30
2022-08-03T21:22:43.808Z,2.50
2022-08-03T21:25:13.690Z,2.50
2022-08-03T21:27:40.802Z,2.50
2022-08-03T21:30:10.206Z,2.50
2022-08-03T21:32:40.306Z,2.60
2022-08-03T21:35:12.529Z,2.50
2022-08-03T21:37:40.917Z,2.40
2022-08-03T21:40:09.426Z,2.45
2022-08-03T21:42:35.987Z,2.50
2022-08-03T21:45:08.076Z,2.80
2022-08-03T21:47:39.854Z,2.55
2022-08-03T21:50:09.992Z,2.70
2022-08-03T21:52:43.477Z,2.72
2022-08-03T21:55:20.671Z,2.78
2022-08-03T21:57:52.569Z,2.90
2022-08-03T22:00:22.827Z,2.70
2022-08-03T22:02:54.765Z,2.80
2022-08-03T22:05:28.912Z,3.00
2022-08-03T22:08:09.877Z,2.70
2022-08-03T22:10:37.167Z,2.70
2022-08-03T22:13:03.880Z,3.15
2022-08-03T22:15:30.694Z,2.60
2022-08-03T22:17:59.464Z,2.70
2022-08-03T22:20:26.107Z,2.75
2022-08-03T22:22:55.973Z,2.60
2022-08-03T22:25:29.019Z,2.88
2022-08-03T22:27:57.381Z,2.80
2022-08-03T22:30:23.904Z,2.80
2022-08-03T22:32:54.158Z,2.90
2022-08-03T22:35:21.527Z,3.10
2022-08-03T22:37:53.739Z,2.90
2022-08-03T22:40:20.643Z,3.35
2022-08-03T22:42:49.538Z,2.78
2022-08-03T22:46:07.219Z,2.70
2022-08-03T22:48:07.901Z,2.80
2022-08-03T22:50:35.406Z,2.80
2022-08-03T22:53:02.420Z,4.10
2022-08-03T22:55:31.042Z,3.08
2022-08-03T22:57:57.512Z,2.83
2022-08-03T23:00:24.604Z,3.37
2022-08-03T23:02:53.759Z,3.03
2022-08-03T23:06:02.271Z,3.35
2022-08-03T23:08:13.063Z,3.03
2022-08-03T23:10:46.124Z,3.10
2022-08-03T23:13:17.856Z,3.10
2022-08-03T23:15:51.852Z,3.35
2022-08-03T23:18:20.837Z,3.53
2022-08-03T23:20:51.538Z,3.08
2022-08-03T23:23:20.026Z,3.08
2022-08-03T23:25:50.035Z,3.13
2022-08-03T23:28:17.255Z,3.13
2022-08-03T23:30:49.764Z,3.30
2022-08-03T23:33:17.572Z,3.40
2022-08-03T23:36:28.810Z,3.33
2022-08-03T23:38:44.617Z,3.00
2022-08-03T23:41:13.347Z,3.45
2022-08-03T23:43:51.326Z,3.22
2022-08-03T23:46:21.142Z,3.10
2022-08-03T23:48:47.816Z,3.47
2022-08-03T23:51:30.467Z,3.33
2022-08-03T23:54:06.157Z,3.40
2022-08-03T23:56:50.874Z,3.10
2022-08-03T23:59:26.196Z,3.40
